createdAt,value
2022-09-23T00:01:12.845Z,12.44
2022-09-23T00:03:42.792Z,12.39
2022-09-23T00:06:12.368Z,12.41
2022-09-23T00:08:41.906Z,12.40
2022-09-23T00:11:10.765Z,12.36
2022-09-23T00:13:39.389Z,12.28
2022-09-23T00:16:08.146Z,12.22
2022-09-23T00:18:36.182Z,12.14
2022-09-23T00:21:05.597Z,12.13
2022-09-23T00:23:33.829Z,12.15
2022-09-23T00:26:04.192Z,12.17
2022-09-23T00:28:33.204Z,12.21
2022-09-23T00:31:03.412Z,12.26
2022-09-23T00:33:31.428Z,12.33
2022-09-23T00:36:00.250Z,12.42
2022-09-23T00:38:28.218Z,12.46
2022-09-23T00:40:56.261Z,12.53
2022-09-23T00:43:39.303Z,12.58
2022-09-23T00:46:08.535Z,12.63
2022-09-23T00:48:36.947Z,12.65
2022-09-23T00:51:06.619Z,12.67
2022-09-23T00:53:34.677Z,12.68
2022-09-23T00:56:04.083Z,12.71
2022-09-23T00:58:34.052Z,12.72
2022-09-23T01:01:03.949Z,12.78
2022-09-23T01:03:32.282Z,12.79
2022-09-23T01:06:00.608Z,12.74
2022-09-23T01:08:29.237Z,12.68
2022-09-23T01:11:01.729Z,12.67
2022-09-23T01:13:33.573Z,12.69
2022-09-23T01:16:07.047Z,12.71
2022-09-23T01:18:40.172Z,12.73
2022-09-23T01:21:17.248Z,12.76
2022-09-23T01:24:03.656Z,12.64
2022-09-23T01:26:46.481Z,12.66
2022-09-23T01:29:28.690Z,12.67
2022-09-23T01:32:03.088Z,12.69
2022-09-23T01:34:35.535Z,12.65
2022-09-23T01:37:08.761Z,12.63
2022-09-23T01:39:40.034Z,12.57
2022-09-23T01:42:10.389Z,12.49
2022-09-23T01:44:43.120Z,12.52
2022-09-23T01:47:16.416Z,12.51
2022-09-23T01:49:47.410Z,12.53
2022-09-23T01:52:17.933Z,12.55
2022-09-23T01:54:47.985Z,12.51
2022-09-23T01:57:19.030Z,12.54
2022-09-23T01:59:49.985Z,12.52
2022-09-23T02:02:22.282Z,12.55
2022-09-23T02:04:54.371Z,12.58
2022-09-23T02:07:26.333Z,12.60
2022-09-23T02:09:59.789Z,12.59
2022-09-23T02:12:30.513Z,12.54
2022-09-23T02:15:01.016Z,12.55
2022-09-23T02:17:33.061Z,12.57
2022-09-23T02:20:02.838Z,12.59
2022-09-23T02:22:36.134Z,12.58
2022-09-23T02:25:04.787Z,12.58
2022-09-23T02:27:36.510Z,12.59
2022-09-23T02:30:09.682Z,12.58
2022-09-23T02:32:45.238Z,12.58
2022-09-23T02:35:18.117Z,12.59
2022-09-23T02:37:48.945Z,12.59
2022-09-23T02:40:23.745Z,12.60
2022-09-23T02:42:57.477Z,12.61
2022-09-23T02:45:25.448Z,12.61
2022-09-23T02:47:58.249Z,12.60
2022-09-23T02:50:26.563Z,12.59
2022-09-23T02:52:54.466Z,12.58
2022-09-23T02:55:23.878Z,12.59
2022-09-23T02:57:53.608Z,12.55
2022-09-23T03:00:21.704Z,12.55
2022-09-23T03:03:02.181Z,12.54
2022-09-23T03:05:31.766Z,12.57
2022-09-23T03:08:08.084Z,12.59
2022-09-23T03:10:40.335Z,12.59
2022-09-23T03:13:14.373Z,12.62
2022-09-23T03:15:46.899Z,12.63
2022-09-23T03:18:18.700Z,12.65
2022-09-23T03:20:50.246Z,12.66
2022-09-23T03:23:20.722Z,12.66
2022-09-23T03:25:52.438Z,12.65
2022-09-23T03:28:22.185Z,12.67
2022-09-23T03:30:51.164Z,12.69
2022-09-23T03:33:26.778Z,12.69
2022-09-23T03:36:18.167Z,12.71
2022-09-23T03:38:46.893Z,12.70
2022-09-23T03:41:17.214Z,12.74
2022-09-23T03:43:45.560Z,12.75
2022-09-23T03:46:17.007Z,12.79
2022-09-23T03:48:46.586Z,12.82
2022-09-23T03:51:22.154Z,12.88
2022-09-23T03:53:50.078Z,12.93
2022-09-23T03:56:18.684Z,12.94
2022-09-23T03:58:47.097Z,12.94
2022-09-23T04:01:16.180Z,12.93
2022-09-23T04:03:44.340Z,12.92
2022-09-23T04:06:14.221Z,12.95
2022-09-23T04:08:42.311Z,12.88
2022-09-23T04:11:11.452Z,12.89
2022-09-23T04:13:39.595Z,12.87
2022-09-23T04:19:04.951Z,12.78
2022-09-23T04:21:35.161Z,12.85
2022-09-23T04:24:03.819Z,12.86
2022-09-23T04:26:31.854Z,12.91
2022-09-23T04:29:00.263Z,12.89
2022-09-23T04:31:29.048Z,12.92
2022-09-23T04:33:57.112Z,12.92
2022-09-23T04:36:25.335Z,12.89
2022-09-23T04:38:54.752Z,12.84
2022-09-23T04:41:22.866Z,12.92
2022-09-23T04:43:50.871Z,12.98
2022-09-23T04:46:18.925Z,12.91
2022-09-23T04:48:47.042Z,12.90
2022-09-23T04:51:15.832Z,12.96
2022-09-23T04:53:45.136Z,12.93
2022-09-23T04:56:15.707Z,13.07
2022-09-23T04:58:44.219Z,13.11
2022-09-23T05:01:13.931Z,13.17
2022-09-23T05:03:43.081Z,13.25
2022-09-23T05:06:13.926Z,13.14
2022-09-23T05:08:42.260Z,13.22
2022-09-23T05:11:10.252Z,13.40
2022-09-23T05:13:39.888Z,13.55
2022-09-23T05:16:09.368Z,13.74
2022-09-23T05:18:37.924Z,13.79
2022-09-23T05:21:06.458Z,13.84
2022-09-23T05:23:37.723Z,13.93
2022-09-23T05:26:07.317Z,13.96
2022-09-23T05:28:37.562Z,14.03
2022-09-23T05:31:08.535Z,14.02
2022-09-23T05:33:37.332Z,14.27
2022-09-23T05:36:11.185Z,14.41
2022-09-23T05:38:40.123Z,14.58
2022-09-23T05:41:09.379Z,14.73
2022-09-23T05:43:38.218Z,14.91
2022-09-23T05:46:09.283Z,15.03
2022-09-23T05:48:37.876Z,15.05
2022-09-23T05:51:14.227Z,15.10
2022-09-23T05:53:45.073Z,15.22
2022-09-23T05:56:13.636Z,15.39
2022-09-23T05:58:41.868Z,15.57
2022-09-23T06:01:14.827Z,15.71
2022-09-23T06:03:43.344Z,15.76
2022-09-23T06:06:14.676Z,15.76
2022-09-23T06:08:43.215Z,15.83
2022-09-23T06:11:12.542Z,15.89
2022-09-23T06:13:41.198Z,16.05
2022-09-23T06:16:10.460Z,16.29
2022-09-23T06:18:41.599Z,16.49
2022-09-23T06:21:10.065Z,16.58
2022-09-23T06:23:41.148Z,16.55
2022-09-23T06:26:11.362Z,16.51
2022-09-23T06:28:40.599Z,16.52
2022-09-23T06:31:13.309Z,16.66
2022-09-23T06:33:45.100Z,16.80
2022-09-23T06:36:22.814Z,17.11
2022-09-23T06:38:59.288Z,17.30
2022-09-23T06:41:27.403Z,17.41
2022-09-23T06:43:55.612Z,17.47
2022-09-23T06:46:23.803Z,17.50
2022-09-23T06:48:53.559Z,17.51
2022-09-23T06:51:21.928Z,17.54
2022-09-23T06:53:50.793Z,17.46
2022-09-23T06:56:20.015Z,17.34
2022-09-23T06:58:48.334Z,17.24
2022-09-23T07:01:17.400Z,17.28
2022-09-23T07:03:46.450Z,17.35
2022-09-23T07:06:16.191Z,17.34
2022-09-23T07:08:44.662Z,17.08
2022-09-23T07:11:13.614Z,17.02
2022-09-23T07:13:42.873Z,16.97
2022-09-23T07:16:11.956Z,16.90
2022-09-23T07:18:41.099Z,16.66
2022-09-23T07:21:11.587Z,16.52
2022-09-23T07:23:41.143Z,16.45
2022-09-23T07:26:09.371Z,16.28
2022-09-23T07:28:38.685Z,16.37
2022-09-23T07:31:08.300Z,16.46
2022-09-23T07:33:37.208Z,16.53
2022-09-23T07:36:06.356Z,16.65
2022-09-23T07:38:34.814Z,16.68
2022-09-23T07:41:05.634Z,16.67
2022-09-23T07:43:34.434Z,16.63
2022-09-23T07:46:03.990Z,16.57
2022-09-23T07:48:34.532Z,16.30
2022-09-23T07:51:07.495Z,15.95
2022-09-23T07:53:36.099Z,15.75
2022-09-23T07:56:07.038Z,15.31
2022-09-23T07:58:35.708Z,15.43
2022-09-23T08:01:06.012Z,15.59
2022-09-23T08:03:34.367Z,15.51
2022-09-23T08:06:06.659Z,15.54
2022-09-23T08:08:35.727Z,15.79
2022-09-23T08:11:06.492Z,15.76
2022-09-23T08:13:35.241Z,16.02
2022-09-23T08:16:03.823Z,16.41
2022-09-23T08:18:32.383Z,16.84
2022-09-23T08:21:01.136Z,16.69
2022-09-23T08:23:33.674Z,16.23
2022-09-23T08:26:02.781Z,16.15
2022-09-23T08:28:33.968Z,16.27
2022-09-23T08:31:02.488Z,16.43
2022-09-23T08:33:31.091Z,16.43
2022-09-23T08:36:01.087Z,16.71
2022-09-23T08:38:29.421Z,17.03
2022-09-23T08:41:05.862Z,17.45
2022-09-23T08:43:36.463Z,17.71
2022-09-23T08:46:06.040Z,17.81
2022-09-23T08:48:36.538Z,18.09
2022-09-23T08:51:06.997Z,18.32
2022-09-23T08:53:36.419Z,18.40
2022-09-23T08:56:07.355Z,18.40
2022-09-23T08:58:41.654Z,18.01
2022-09-23T09:01:15.215Z,17.91
2022-09-23T09:03:46.548Z,17.38
2022-09-23T09:06:18.991Z,17.32
2022-09-23T09:08:48.829Z,17.17
2022-09-23T09:11:19.486Z,16.97
2022-09-23T09:13:53.164Z,16.75
2022-09-23T09:16:55.427Z,16.99
2022-09-23T09:19:20.667Z,17.16
2022-09-23T09:21:49.423Z,16.92
2022-09-23T09:24:19.313Z,16.75
2022-09-23T09:26:47.687Z,16.99
2022-09-23T09:29:36.202Z,17.10
2022-09-23T09:32:15.008Z,17.30
2022-09-23T09:34:46.642Z,16.97
2022-09-23T09:37:17.207Z,17.00
2022-09-23T09:39:45.525Z,16.99
2022-09-23T09:42:19.333Z,17.12
2022-09-23T09:44:52.720Z,17.53
2022-09-23T09:47:29.884Z,17.70
2022-09-23T09:50:02.796Z,17.87
2022-09-23T09:52:32.108Z,18.09
2022-09-23T09:55:19.219Z,18.07
2022-09-23T09:57:50.076Z,18.22
2022-09-23T10:00:35.626Z,18.32
2022-09-23T10:03:05.231Z,18.29
2022-09-23T10:05:34.962Z,18.26
2022-09-23T10:08:22.639Z,18.21
2022-09-23T10:10:54.974Z,18.10
2022-09-23T10:13:24.543Z,18.08
2022-09-23T10:15:56.119Z,18.01
2022-09-23T10:18:28.212Z,17.87
2022-09-23T10:21:01.730Z,17.59
2022-09-23T10:23:33.583Z,17.54
2022-09-23T10:28:45.684Z,17.35
2022-09-23T10:31:16.302Z,17.42
2022-09-23T10:33:49.016Z,17.57
2022-09-23T10:36:18.092Z,17.72
2022-09-23T10:38:53.734Z,17.81
2022-09-23T10:41:43.643Z,17.77
2022-09-23T10:50:15.135Z,18.01
2022-09-23T10:52:50.457Z,17.98
2022-09-23T10:55:29.373Z,17.75
2022-09-23T10:58:17.633Z,17.56
2022-09-23T11:00:49.547Z,17.34
2022-09-23T11:03:34.218Z,17.33
2022-09-23T11:06:09.961Z,17.23
2022-09-23T11:08:48.296Z,16.87
2022-09-23T11:11:22.045Z,16.93
2022-09-23T11:14:04.452Z,16.61
2022-09-23T11:16:43.862Z,16.43
2022-09-23T11:19:22.375Z,16.12
2022-09-23T11:21:58.538Z,15.62
2022-09-23T11:24:50.322Z,15.55
2022-09-23T11:27:26.890Z,15.62
2022-09-23T11:30:01.015Z,15.84
2022-09-23T11:32:51.484Z,16.23
2022-09-23T11:35:21.605Z,16.55
2022-09-23T11:37:53.305Z,16.75
2022-09-23T11:40:23.960Z,16.89
2022-09-23T11:42:56.982Z,16.88
2022-09-23T11:45:29.333Z,16.88
2022-09-23T11:48:02.102Z,16.72
2022-09-23T11:50:36.607Z,16.33
2022-09-23T11:53:09.132Z,15.92
2022-09-23T11:55:55.234Z,15.67
2022-09-23T12:01:37.910Z,14.94
2022-09-23T12:04:19.162Z,14.62
2022-09-23T12:06:51.327Z,14.50
2022-09-23T12:09:40.912Z,14.42
2022-09-23T12:12:16.321Z,14.47
2022-09-23T12:14:52.328Z,14.67
2022-09-23T12:17:38.539Z,14.78
2022-09-23T12:20:16.116Z,15.04
2022-09-23T12:22:48.927Z,15.24
2022-09-23T12:25:31.890Z,15.40
2022-09-23T12:28:05.191Z,15.77
2022-09-23T12:30:35.641Z,16.28
2022-09-23T12:33:11.964Z,16.84
2022-09-23T12:35:42.778Z,17.37
2022-09-23T12:38:26.640Z,17.74
2022-09-23T12:40:56.391Z,18.18
2022-09-23T12:43:34.686Z,18.20
2022-09-23T12:46:20.266Z,18.09
2022-09-23T12:48:49.748Z,17.72
2022-09-23T12:51:19.638Z,17.34
2022-09-23T12:53:57.347Z,17.66
2022-09-23T12:56:31.268Z,17.82
2022-09-23T12:59:26.178Z,17.84
2022-09-23T13:02:00.758Z,17.48
2022-09-23T13:04:48.807Z,17.18
2022-09-23T13:07:19.034Z,16.88
2022-09-23T13:09:53.277Z,16.61
2022-09-23T13:12:26.808Z,16.46
2022-09-23T13:15:00.314Z,16.46
2022-09-23T13:17:43.747Z,16.47
2022-09-23T13:20:30.408Z,16.24
2022-09-23T13:23:36.667Z,16.08
2022-09-23T13:26:13.563Z,16.07
2022-09-23T13:28:45.742Z,15.89
2022-09-23T13:31:17.455Z,15.75
2022-09-23T13:33:51.130Z,15.75
2022-09-23T13:36:22.621Z,15.72
2022-09-23T13:38:52.816Z,15.82
2022-09-23T13:41:22.939Z,15.87
2022-09-23T13:51:30.102Z,15.52
2022-09-23T13:54:23.373Z,15.35
2022-09-23T14:00:15.022Z,15.02
2022-09-23T14:02:50.484Z,14.99
2022-09-23T14:05:27.262Z,14.96
2022-09-23T14:08:00.332Z,14.94
2022-09-23T14:10:31.397Z,14.94
2022-09-23T14:12:59.757Z,14.93
2022-09-23T14:15:28.279Z,14.85
2022-09-23T14:18:02.399Z,14.74
2022-09-23T14:20:31.068Z,14.81
2022-09-23T14:23:07.450Z,14.64
2022-09-23T14:25:38.294Z,14.44
2022-09-23T14:28:07.039Z,14.39
2022-09-23T14:30:35.978Z,14.33
2022-09-23T14:33:08.608Z,14.26
2022-09-23T14:35:42.622Z,14.17
2022-09-23T14:38:28.198Z,14.13
2022-09-23T14:41:13.177Z,14.09
2022-09-23T14:43:41.769Z,14.06
2022-09-23T14:46:17.772Z,14.08
2022-09-23T14:48:53.466Z,13.97
2022-09-23T14:51:22.044Z,13.92
2022-09-23T14:53:50.197Z,13.97
2022-09-23T14:56:21.360Z,13.75
2022-09-23T14:58:53.044Z,13.75
2022-09-23T15:01:29.589Z,13.65
2022-09-23T15:03:58.962Z,13.57
2022-09-23T15:06:27.559Z,13.53
2022-09-23T15:08:57.111Z,13.51
2022-09-23T15:11:26.765Z,13.50
2022-09-23T15:13:55.148Z,13.55
2022-09-23T15:16:26.305Z,13.48
2022-09-23T15:18:55.712Z,13.58
2022-09-23T15:21:25.019Z,13.55
2022-09-23T15:23:55.065Z,13.58
2022-09-23T15:26:24.892Z,13.60
2022-09-23T15:28:56.070Z,13.60
2022-09-23T15:31:26.727Z,13.48
2022-09-23T15:33:56.259Z,13.33
2022-09-23T15:36:25.995Z,13.41
2022-09-23T15:38:55.333Z,13.26
2022-09-23T15:41:24.646Z,13.13
2022-09-23T15:43:53.337Z,13.26
2022-09-23T15:46:24.214Z,13.14
2022-09-23T15:48:58.921Z,13.03
2022-09-23T15:51:28.220Z,12.98
2022-09-23T15:53:56.619Z,12.97
2022-09-23T15:56:25.204Z,12.87
2022-09-23T15:58:53.374Z,12.76
2022-09-23T16:01:26.802Z,12.75
2022-09-23T16:03:56.022Z,12.51
2022-09-23T16:06:24.451Z,12.70
2022-09-23T16:08:53.258Z,12.66
2022-09-23T16:11:22.843Z,12.59
2022-09-23T16:13:51.277Z,12.60
2022-09-23T16:16:21.366Z,12.57
2022-09-23T16:18:52.028Z,12.60
2022-09-23T16:21:21.263Z,12.62
2022-09-23T16:23:50.562Z,12.60
2022-09-23T16:26:20.468Z,12.62
2022-09-23T16:28:49.239Z,12.59
2022-09-23T16:31:35.220Z,12.59
2022-09-23T16:34:04.807Z,12.69
2022-09-23T16:36:34.259Z,12.66
2022-09-23T16:39:03.537Z,12.77
2022-09-23T16:41:33.336Z,12.73
2022-09-23T16:44:02.402Z,12.60
2022-09-23T16:46:31.679Z,12.65
2022-09-23T16:49:00.705Z,12.63
2022-09-23T16:51:31.836Z,12.46
2022-09-23T16:54:00.762Z,12.50
2022-09-23T16:56:29.789Z,12.51
2022-09-23T16:58:58.256Z,12.57
2022-09-23T17:01:44.741Z,12.44
2022-09-23T17:04:13.489Z,12.45
2022-09-23T17:06:45.265Z,12.44
2022-09-23T17:09:13.498Z,12.32
2022-09-23T17:11:43.745Z,12.24
2022-09-23T17:14:11.781Z,12.19
2022-09-23T17:16:40.241Z,12.20
2022-09-23T17:19:09.008Z,12.09
2022-09-23T17:21:37.307Z,12.20
2022-09-23T17:24:07.078Z,12.31
2022-09-23T17:26:35.256Z,12.32
2022-09-23T17:29:03.716Z,12.41
2022-09-23T17:31:31.744Z,12.50
2022-09-23T17:34:00.946Z,12.51
2022-09-23T17:36:29.280Z,12.42
2022-09-23T17:38:57.307Z,12.50
2022-09-23T17:41:28.343Z,12.50
2022-09-23T17:43:58.814Z,12.46
2022-09-23T17:46:29.466Z,12.30
2022-09-23T17:48:58.087Z,12.19
2022-09-23T17:51:26.365Z,12.31
2022-09-23T17:53:54.437Z,12.33
2022-09-23T17:56:23.525Z,12.41
2022-09-23T17:58:53.976Z,12.39
2022-09-23T18:01:23.350Z,12.39
2022-09-23T18:03:55.020Z,12.36
2022-09-23T18:06:24.626Z,12.36
2022-09-23T18:08:53.164Z,12.29
2022-09-23T18:11:21.868Z,12.30
2022-09-23T18:13:50.820Z,12.41
2022-09-23T18:16:21.139Z,12.41
2022-09-23T18:18:53.262Z,12.32
2022-09-23T18:21:21.628Z,12.31
2022-09-23T18:23:50.585Z,12.25
2022-09-23T18:26:19.822Z,12.25
2022-09-23T18:28:48.209Z,12.26
2022-09-23T18:31:17.471Z,12.22
2022-09-23T18:33:49.684Z,12.21
2022-09-23T18:36:17.960Z,12.01
2022-09-23T18:38:46.076Z,11.98
2022-09-23T18:41:14.056Z,11.99
2022-09-23T18:43:48.151Z,11.89
2022-09-23T18:46:19.329Z,11.91
2022-09-23T18:49:08.153Z,11.94
2022-09-23T18:51:38.931Z,11.94
2022-09-23T18:54:09.740Z,11.98
2022-09-23T18:56:42.786Z,11.99
2022-09-23T18:59:14.376Z,12.07
2022-09-23T19:01:50.510Z,11.98
2022-09-23T19:04:24.704Z,11.99
2022-09-23T19:06:54.011Z,12.05
2022-09-23T19:09:22.497Z,12.14
2022-09-23T19:11:54.196Z,12.03
2022-09-23T19:14:23.775Z,11.88
2022-09-23T19:16:52.222Z,11.89
2022-09-23T19:19:21.885Z,11.82
2022-09-23T19:21:50.498Z,11.84
2022-09-23T19:24:21.173Z,11.88
2022-09-23T19:26:50.589Z,11.85
2022-09-23T19:29:22.001Z,11.91
2022-09-23T19:31:51.356Z,11.88
2022-09-23T19:34:23.814Z,11.91
2022-09-23T19:36:54.802Z,11.96
2022-09-23T19:39:23.826Z,11.95
2022-09-23T19:41:52.660Z,11.93
2022-09-23T19:44:21.224Z,11.77
2022-09-23T19:46:55.308Z,11.80
2022-09-23T19:49:25.354Z,11.78
2022-09-23T19:52:06.726Z,11.78
2022-09-23T19:54:35.317Z,11.78
2022-09-23T19:57:03.888Z,11.76
2022-09-23T20:02:20.851Z,11.78
2022-09-23T20:04:51.595Z,11.78
2022-09-23T20:07:27.135Z,11.68
2022-09-23T20:09:55.979Z,11.68
2022-09-23T20:12:25.241Z,11.63
2022-09-23T20:14:53.624Z,11.50
2022-09-23T20:17:22.198Z,11.60
2022-09-23T20:19:51.170Z,11.56
2022-09-23T20:22:32.940Z,11.55
2022-09-23T20:25:03.190Z,11.62
2022-09-23T20:27:32.374Z,11.64
2022-09-23T20:30:00.937Z,11.55
2022-09-23T20:32:29.575Z,11.55
2022-09-23T20:34:58.503Z,11.50
2022-09-23T20:37:28.513Z,11.54
2022-09-23T20:40:03.059Z,11.57
2022-09-23T20:42:32.157Z,11.53
2022-09-23T20:45:00.889Z,11.51
2022-09-23T20:47:29.043Z,11.42
2022-09-23T20:49:57.573Z,11.38
2022-09-23T20:52:25.845Z,11.28
2022-09-23T20:54:55.296Z,11.30
2022-09-23T20:57:24.106Z,11.34
2022-09-23T20:59:52.440Z,11.36
2022-09-23T21:02:20.625Z,11.40
2022-09-23T21:04:49.723Z,11.37
2022-09-23T21:07:18.155Z,11.37
2022-09-23T21:09:46.757Z,11.39
2022-09-23T21:12:16.347Z,11.39
2022-09-23T21:14:44.735Z,11.45
2022-09-23T21:17:14.196Z,11.45
2022-09-23T21:19:42.369Z,11.51
2022-09-23T21:22:12.993Z,11.46
2022-09-23T21:25:21.431Z,11.32
2022-09-23T21:27:33.713Z,11.41
2022-09-23T21:30:02.009Z,11.42
2022-09-23T21:32:32.173Z,11.40
2022-09-23T21:35:00.236Z,11.43
2022-09-23T21:37:28.498Z,11.35
2022-09-23T21:40:10.357Z,11.36
2022-09-23T21:42:42.536Z,11.40
2022-09-23T21:45:11.225Z,11.36
2022-09-23T21:47:40.603Z,11.20
2022-09-23T21:50:09.326Z,11.18
2022-09-23T21:52:38.930Z,11.07
2022-09-23T21:55:07.757Z,10.94
2022-09-23T21:57:36.840Z,10.95
2022-09-23T22:00:07.271Z,10.87
2022-09-23T22:02:40.506Z,10.68
2022-09-23T22:05:09.387Z,10.60
2022-09-23T22:07:38.610Z,10.53
2022-09-23T22:10:07.285Z,10.50
2022-09-23T22:12:35.680Z,10.45
2022-09-23T22:15:04.285Z,10.28
2022-09-23T22:17:34.574Z,10.28
2022-09-23T22:20:03.386Z,10.30
2022-09-23T22:22:32.115Z,10.27
2022-09-23T22:25:00.962Z,10.21
2022-09-23T22:27:29.848Z,10.10
2022-09-23T22:30:15.408Z,10.05
2022-09-23T22:32:54.907Z,10.06
2022-09-23T22:35:23.683Z,10.02
2022-09-23T22:37:55.579Z,10.04
2022-09-23T22:40:25.873Z,10.02
2022-09-23T22:42:58.282Z,9.98
2022-09-23T22:45:26.605Z,10.00
2022-09-23T22:47:56.690Z,9.98
2022-09-23T22:50:27.036Z,9.95
2022-09-23T22:52:55.342Z,9.93
2022-09-23T22:55:24.659Z,9.95
2022-09-23T22:57:52.833Z,9.95
2022-09-23T23:00:21.873Z,9.90
2022-09-23T23:02:50.919Z,9.88
2022-09-23T23:05:24.713Z,9.84
2022-09-23T23:07:55.274Z,9.92
2022-09-23T23:10:25.381Z,9.95
2022-09-23T23:12:55.031Z,9.91
2022-09-23T23:15:23.557Z,9.93
2022-09-23T23:18:01.027Z,9.87
2022-09-23T23:20:31.214Z,9.94
2022-09-23T23:23:03.794Z,9.98
2022-09-23T23:25:32.530Z,9.88
2022-09-23T23:28:01.166Z,9.91
2022-09-23T23:30:29.836Z,9.87
2022-09-23T23:33:00.441Z,9.92
2022-09-23T23:35:30.400Z,9.89
2022-09-23T23:37:59.917Z,9.84
2022-09-23T23:40:28.174Z,9.83
2022-09-23T23:42:56.505Z,9.91
2022-09-23T23:45:24.574Z,9.88
2022-09-23T23:47:52.750Z,9.83
2022-09-23T23:50:21.181Z,9.89
2022-09-23T23:52:49.168Z,9.80
2022-09-23T23:55:18.907Z,9.75
2022-09-23T23:57:46.975Z,9.82
